KPIA/PIA METAR and TAF weather

Enter ICAO airport designator
Station Type Date Time Source
KPIA METAR 2021/05/13 06:54 UTC NOAA

KPIA 130654Z 00000KT 10SM CLR 06/M01 A3042 RMK AO2 SLP303 T00561006


Station Type Date Time Source
KPIA Decoded METAR 2021/05/13 06:54 UTC NOAA

GREATER PEORIA REGIONAL AIRPORT , IL, United States (KPIA) 40-40N 89-41W 205M
May 13, 2021 - 02:54 AM EDT / 2021.05.13 0654 UTC
Wind: Calm:0
Visibility: 10 mile(s):0
Sky conditions: clear
Temperature: 42.1 F (5.6 C)
Dew Point: 30.9 F (-0.6 C)
Relative Humidity: 64%
Pressure (altimeter): 30.42 in. Hg (1030 hPa)
ob: KPIA 130654Z 00000KT 10SM CLR 06/M01 A3042 RMK AO2 SLP303 T00561006
cycle: 7

Station Type Date Time Source
KPIA TAF 2021/05/13 06:21 UTC NOAA

TAF KPIA 130520Z 1306/1406 VRB03KT P6SM SKC

Example: see airport list